createdAt,value
2023-03-18T00:01:38.774Z,36.55
2023-03-18T00:04:07.028Z,36.65
2023-03-18T00:06:38.294Z,36.68
2023-03-18T00:09:07.195Z,36.58
2023-03-18T00:11:36.087Z,36.67
2023-03-18T00:14:04.716Z,36.77
2023-03-18T00:16:35.226Z,36.59
2023-03-18T00:19:04.436Z,36.66
2023-03-18T00:21:32.817Z,36.71
2023-03-18T00:24:01.298Z,36.82
2023-03-18T00:26:30.197Z,36.68
2023-03-18T00:28:59.816Z,36.69
2023-03-18T00:31:28.971Z,36.67
2023-03-18T00:33:58.965Z,36.65
2023-03-18T00:36:27.179Z,36.66
2023-03-18T00:38:57.777Z,36.79
2023-03-18T00:41:27.040Z,36.74
2023-03-18T00:43:55.972Z,36.84
2023-03-18T00:46:26.486Z,36.79
2023-03-18T00:48:56.583Z,36.64
2023-03-18T00:51:27.223Z,36.77
2023-03-18T00:53:57.261Z,36.71
2023-03-18T00:56:29.541Z,36.77
2023-03-18T00:58:58.512Z,36.82
2023-03-18T01:01:27.653Z,36.79
2023-03-18T01:03:56.218Z,36.73
2023-03-18T01:06:28.491Z,36.92
2023-03-18T01:08:58.916Z,36.79
2023-03-18T01:11:27.761Z,36.75
2023-03-18T01:13:56.252Z,36.76
2023-03-18T01:16:24.816Z,36.88
2023-03-18T01:18:53.868Z,36.86
2023-03-18T01:21:22.552Z,36.86
2023-03-18T01:23:52.125Z,37.01
2023-03-18T01:26:20.325Z,36.81
2023-03-18T01:28:48.917Z,36.88
2023-03-18T01:31:17.818Z,36.86
2023-03-18T01:33:46.250Z,37.03
2023-03-18T01:36:15.809Z,36.89
2023-03-18T01:38:43.933Z,36.87
2023-03-18T01:41:13.916Z,36.93
2023-03-18T01:43:44.117Z,37.04
2023-03-18T01:46:40.605Z,37.40
2023-03-18T01:49:12.988Z,37.02
2023-03-18T01:51:43.644Z,36.90
2023-03-18T01:54:15.191Z,36.88
2023-03-18T01:56:47.588Z,36.95
2023-03-18T01:59:17.096Z,36.99
2023-03-18T02:01:51.698Z,37.01
2023-03-18T02:04:21.533Z,37.08
2023-03-18T02:06:49.637Z,36.97
2023-03-18T02:09:18.056Z,37.02
2023-03-18T02:11:50.103Z,37.07
2023-03-18T02:14:21.043Z,37.09
2023-03-18T02:16:52.909Z,37.04
2023-03-18T02:19:34.796Z,37.18
2023-03-18T02:22:10.212Z,37.07
2023-03-18T02:24:48.614Z,37.22
2023-03-18T02:27:20.446Z,37.08
2023-03-18T02:29:50.276Z,37.22
2023-03-18T02:32:20.217Z,37.08
2023-03-18T02:34:49.717Z,37.08
2023-03-18T02:37:17.848Z,37.07
2023-03-18T02:39:45.991Z,37.21
2023-03-18T02:42:14.770Z,37.06
2023-03-18T02:44:47.116Z,37.12
2023-03-18T02:47:20.909Z,37.26
2023-03-18T02:49:49.002Z,37.17
2023-03-18T02:52:17.143Z,37.25
2023-03-18T02:54:45.287Z,37.22
2023-03-18T02:57:13.432Z,37.22
2023-03-18T02:59:41.647Z,37.07
2023-03-18T03:02:11.815Z,37.17
2023-03-18T03:04:40.143Z,37.41
2023-03-18T03:07:08.383Z,37.12
2023-03-18T03:09:36.529Z,37.25
2023-03-18T03:12:04.972Z,37.21
2023-03-18T03:14:33.101Z,37.25
2023-03-18T03:17:01.195Z,37.38
2023-03-18T03:19:31.872Z,37.33
2023-03-18T03:22:00.832Z,37.17
2023-03-18T03:24:29.275Z,37.26
2023-03-18T03:26:57.528Z,37.35
2023-03-18T03:29:25.626Z,37.29
2023-03-18T03:31:53.705Z,37.36
2023-03-18T03:34:21.863Z,37.33
2023-03-18T03:36:51.359Z,37.37
2023-03-18T03:39:19.494Z,37.25
2023-03-18T03:41:47.573Z,37.27
2023-03-18T03:44:15.948Z,37.41
2023-03-18T03:46:44.082Z,37.43
2023-03-18T03:49:12.402Z,37.42
2023-03-18T03:51:40.536Z,37.31
2023-03-18T03:54:09.964Z,37.42
2023-03-18T03:56:38.212Z,37.39
2023-03-18T03:59:06.288Z,37.44
2023-03-18T04:01:34.766Z,37.36
2023-03-18T04:04:03.322Z,37.20
2023-03-18T04:06:31.479Z,37.30
2023-03-18T04:08:59.533Z,37.37
2023-03-18T04:11:29.980Z,37.42
2023-03-18T04:13:58.313Z,37.31
2023-03-18T04:16:26.719Z,37.44
2023-03-18T04:18:54.792Z,37.37
2023-03-18T04:21:23.345Z,37.35
2023-03-18T04:23:51.809Z,37.36
2023-03-18T04:26:19.876Z,37.41
2023-03-18T04:28:49.563Z,37.40
2023-03-18T04:31:17.841Z,37.43
2023-03-18T04:33:45.974Z,37.54
2023-03-18T04:36:14.011Z,37.41
2023-03-18T04:38:42.367Z,37.49
2023-03-18T04:41:10.405Z,37.40
2023-03-18T04:43:38.560Z,37.42
2023-03-18T04:46:08.848Z,37.48
2023-03-18T04:48:37.569Z,37.52
2023-03-18T04:51:08.474Z,37.52
2023-03-18T04:53:36.838Z,37.55
2023-03-18T04:56:05.375Z,37.50
2023-03-18T04:58:33.486Z,37.54
2023-03-18T05:01:02.258Z,37.58
2023-03-18T05:03:32.050Z,37.53
2023-03-18T05:06:00.126Z,37.49
2023-03-18T05:08:28.529Z,37.53
2023-03-18T05:10:56.612Z,37.69
2023-03-18T05:13:25.191Z,37.66
2023-03-18T05:15:53.715Z,37.57
2023-03-18T05:18:21.760Z,37.56
2023-03-18T05:20:51.350Z,37.49
2023-03-18T05:23:19.437Z,37.60
2023-03-18T05:25:50.085Z,37.48
2023-03-18T05:28:18.340Z,37.58
2023-03-18T05:30:47.684Z,37.55
2023-03-18T05:33:16.055Z,37.55
2023-03-18T05:35:44.278Z,37.58
2023-03-18T05:38:13.848Z,37.57
2023-03-18T05:40:41.926Z,37.65
2023-03-18T05:43:10.502Z,37.50
2023-03-18T05:45:40.491Z,37.65
2023-03-18T05:48:08.895Z,37.58
2023-03-18T05:50:38.782Z,37.67
2023-03-18T05:53:08.228Z,37.45
2023-03-18T05:55:38.713Z,37.71
2023-03-18T05:58:07.638Z,37.72
2023-03-18T06:00:37.729Z,37.55
2023-03-18T06:03:06.843Z,37.58
2023-03-18T06:05:35.380Z,37.67
2023-03-18T06:08:03.661Z,37.74
2023-03-18T06:10:32.328Z,37.79
2023-03-18T06:13:02.096Z,37.59
2023-03-18T06:15:30.698Z,37.74
2023-03-18T06:17:58.964Z,37.74
2023-03-18T06:20:27.069Z,37.71
2023-03-18T06:22:55.156Z,37.71
2023-03-18T06:25:24.028Z,37.80
2023-03-18T06:27:52.400Z,37.67
2023-03-18T06:30:22.195Z,37.76
2023-03-18T06:32:50.315Z,37.70
2023-03-18T06:35:18.979Z,37.78
2023-03-18T06:37:47.095Z,37.78
2023-03-18T06:40:15.762Z,37.79
2023-03-18T06:42:44.687Z,37.89
2023-03-18T06:45:13.767Z,37.86
2023-03-18T06:47:43.256Z,37.75
2023-03-18T06:50:14.053Z,37.81
2023-03-18T06:52:42.435Z,37.79
2023-03-18T06:55:11.856Z,37.76
2023-03-18T06:57:40.685Z,37.83
2023-03-18T07:00:10.446Z,37.74
2023-03-18T07:02:39.742Z,37.84
2023-03-18T07:05:10.877Z,37.80
2023-03-18T07:07:39.331Z,37.82
2023-03-18T07:10:09.722Z,37.84
2023-03-18T07:12:37.874Z,37.91
2023-03-18T07:15:07.895Z,37.95
2023-03-18T07:17:36.918Z,37.87
2023-03-18T07:20:05.696Z,37.92
2023-03-18T07:22:35.662Z,38.09
2023-03-18T07:25:03.768Z,38.03
2023-03-18T07:27:31.860Z,38.07
2023-03-18T07:29:59.951Z,37.80
2023-03-18T07:32:28.289Z,37.95
2023-03-18T07:34:57.199Z,38.03
2023-03-18T07:37:25.492Z,37.89
2023-03-18T07:39:55.087Z,38.01
2023-03-18T07:42:23.292Z,38.02
2023-03-18T07:44:51.480Z,38.01
2023-03-18T07:47:21.065Z,37.93
2023-03-18T07:49:49.168Z,38.08
2023-03-18T07:52:17.316Z,38.09
2023-03-18T07:54:45.608Z,38.00
2023-03-18T07:57:15.324Z,38.08
2023-03-18T07:59:43.447Z,38.03
2023-03-18T08:02:14.582Z,37.97
2023-03-18T08:04:44.321Z,38.00
2023-03-18T08:07:12.970Z,38.04
2023-03-18T08:09:41.246Z,38.07
2023-03-18T08:12:10.261Z,38.03
2023-03-18T08:14:39.897Z,38.03
2023-03-18T08:17:09.036Z,38.01
2023-03-18T08:19:37.454Z,38.08
2023-03-18T08:22:05.589Z,38.13
2023-03-18T08:24:33.923Z,38.13
2023-03-18T08:27:01.986Z,38.14
2023-03-18T08:29:30.133Z,38.33
2023-03-18T08:31:59.711Z,38.02
2023-03-18T08:34:28.290Z,38.07
2023-03-18T08:36:56.701Z,38.19
2023-03-18T08:39:24.769Z,38.25
2023-03-18T08:41:52.864Z,38.13
2023-03-18T08:44:20.991Z,38.06
2023-03-18T08:46:49.300Z,38.18
2023-03-18T08:49:18.835Z,38.22
2023-03-18T08:51:47.249Z,38.24
2023-03-18T08:54:15.430Z,38.20
2023-03-18T08:56:43.758Z,38.16
2023-03-18T08:59:11.954Z,38.34
2023-03-18T09:01:40.456Z,38.19
2023-03-18T09:04:08.697Z,38.34
2023-03-18T09:06:38.188Z,38.33
2023-03-18T09:09:06.307Z,38.27
2023-03-18T09:11:34.994Z,38.36
2023-03-18T09:14:03.103Z,38.27
2023-03-18T09:16:31.286Z,38.41
2023-03-18T09:18:59.567Z,38.19
2023-03-18T09:21:28.717Z,38.29
2023-03-18T09:23:58.230Z,38.31
2023-03-18T09:26:26.519Z,38.29
2023-03-18T09:28:54.823Z,38.22
2023-03-18T09:31:23.032Z,38.36
2023-03-18T09:33:51.163Z,38.37
2023-03-18T09:36:19.399Z,38.32
2023-03-18T09:38:47.589Z,38.39
2023-03-18T09:41:31.002Z,38.57
2023-03-18T09:44:10.820Z,38.43
2023-03-18T09:46:54.878Z,38.53
2023-03-18T09:49:40.073Z,38.68
2023-03-18T09:52:19.070Z,38.58
2023-03-18T09:54:56.610Z,38.57
2023-03-18T09:57:31.361Z,38.37
2023-03-18T10:00:06.299Z,38.28
2023-03-18T10:02:39.811Z,38.42
2023-03-18T10:05:13.841Z,38.48
2023-03-18T10:07:44.902Z,38.48
2023-03-18T10:10:24.594Z,38.54
2023-03-18T10:13:01.835Z,38.59
2023-03-18T10:15:34.350Z,38.43
2023-03-18T10:18:11.970Z,38.49
2023-03-18T10:20:53.728Z,38.65
2023-03-18T10:23:33.124Z,38.68
2023-03-18T10:26:06.977Z,38.41
2023-03-18T10:28:49.326Z,38.71
2023-03-18T10:31:29.778Z,38.73
2023-03-18T10:34:00.584Z,38.51
2023-03-18T10:36:34.580Z,38.53
2023-03-18T10:39:03.989Z,38.50
2023-03-18T10:41:35.949Z,38.57
2023-03-18T10:44:17.312Z,38.83
2023-03-18T10:46:47.974Z,38.48
2023-03-18T10:49:20.358Z,38.53
2023-03-18T10:51:53.661Z,38.54
2023-03-18T10:54:28.763Z,38.59
2023-03-18T10:56:56.850Z,38.53
2023-03-18T10:59:27.884Z,38.63
2023-03-18T11:02:00.710Z,38.54
2023-03-18T11:04:30.695Z,38.62
2023-03-18T11:07:02.792Z,38.61
2023-03-18T11:09:34.037Z,38.62
2023-03-18T11:12:06.938Z,38.59
2023-03-18T11:14:38.674Z,38.60
2023-03-18T11:17:19.160Z,38.57
2023-03-18T11:19:49.269Z,38.75
2023-03-18T11:22:25.018Z,38.74
2023-03-18T11:25:14.373Z,39.12
2023-03-18T11:27:45.938Z,38.69
2023-03-18T11:30:33.500Z,38.81
2023-03-18T11:33:07.390Z,38.73
2023-03-18T11:35:42.054Z,38.71
2023-03-18T11:38:19.648Z,38.85
2023-03-18T11:40:48.147Z,38.71
2023-03-18T11:43:20.236Z,38.64
2023-03-18T11:45:54.128Z,38.76
2023-03-18T11:48:37.122Z,39.16
2023-03-18T11:51:30.311Z,39.04
2023-03-18T11:54:19.743Z,39.05
2023-03-18T11:56:51.377Z,38.70
2023-03-18T11:59:38.984Z,38.85
2023-03-18T12:02:32.164Z,39.22
2023-03-18T12:05:11.061Z,38.90
2023-03-18T12:07:54.230Z,39.04
2023-03-18T12:10:29.960Z,38.74
2023-03-18T12:13:14.744Z,39.13
2023-03-18T12:15:53.180Z,38.99
2023-03-18T12:18:41.181Z,39.19
2023-03-18T12:21:26.901Z,39.00
2023-03-18T12:24:09.113Z,38.84
2023-03-18T12:26:48.037Z,38.86
2023-03-18T12:29:46.905Z,39.15
2023-03-18T12:32:26.191Z,38.99
2023-03-18T12:35:23.400Z,39.27
2023-03-18T12:38:13.543Z,39.18
2023-03-18T12:40:54.960Z,39.17
2023-03-18T12:43:53.508Z,39.19
2023-03-18T12:46:28.906Z,38.91
2023-03-18T12:49:03.911Z,38.89
2023-03-18T12:51:43.756Z,39.04
2023-03-18T12:54:20.186Z,38.88
2023-03-18T12:56:52.985Z,38.92
2023-03-18T12:59:28.017Z,38.82
2023-03-18T13:02:17.593Z,39.34
2023-03-18T13:04:55.233Z,39.18
2023-03-18T13:07:33.975Z,39.11
2023-03-18T13:10:09.039Z,38.71
2023-03-18T13:12:40.591Z,38.80
2023-03-18T13:15:22.323Z,39.23
2023-03-18T13:17:52.767Z,38.95
2023-03-18T13:20:25.117Z,38.97
2023-03-18T13:23:24.962Z,39.49
2023-03-18T13:26:13.612Z,39.38
2023-03-18T13:29:09.544Z,39.51
2023-03-18T13:31:49.811Z,38.99
2023-03-18T13:34:44.867Z,39.12
2023-03-18T13:37:51.104Z,39.65
2023-03-18T13:41:01.447Z,39.72
2023-03-18T13:43:33.070Z,38.99
2023-03-18T13:46:02.608Z,38.97
2023-03-18T13:48:33.771Z,38.93
2023-03-18T13:51:20.668Z,39.59
2023-03-18T13:53:50.741Z,39.09
2023-03-18T13:56:29.058Z,39.25
2023-03-18T13:58:59.056Z,39.18
2023-03-18T14:01:34.117Z,39.10
2023-03-18T14:04:21.079Z,39.10
2023-03-18T14:06:57.391Z,39.31
2023-03-18T14:09:36.193Z,39.37
2023-03-18T14:12:19.005Z,39.16
2023-03-18T14:15:09.617Z,39.59
2023-03-18T14:17:47.744Z,39.32
2023-03-18T14:20:28.655Z,39.42
2023-03-18T14:23:18.280Z,39.06
2023-03-18T14:25:54.589Z,39.14
2023-03-18T14:28:27.505Z,39.18
2023-03-18T14:31:17.871Z,39.74
2023-03-18T14:33:53.942Z,39.27
2023-03-18T14:36:41.319Z,39.29
2023-03-18T14:39:15.360Z,39.06
2023-03-18T14:41:47.219Z,39.23
2023-03-18T14:44:24.222Z,39.18
2023-03-18T14:46:59.353Z,39.32
2023-03-18T14:49:38.324Z,39.45
2023-03-18T14:52:14.781Z,39.26
2023-03-18T14:54:46.116Z,39.05
2023-03-18T14:57:14.415Z,39.11
2023-03-18T14:59:43.022Z,39.11
2023-03-18T15:02:24.055Z,39.47
2023-03-18T15:04:55.143Z,39.23
2023-03-18T15:07:30.330Z,39.17
2023-03-18T15:09:59.279Z,39.21
2023-03-18T15:12:29.555Z,39.02
2023-03-18T15:14:57.776Z,39.22
2023-03-18T15:17:28.509Z,39.29
2023-03-18T15:20:00.462Z,39.23
2023-03-18T15:22:32.602Z,39.17
2023-03-18T15:25:03.604Z,39.29
2023-03-18T15:27:34.580Z,39.13
2023-03-18T15:30:05.931Z,39.26
2023-03-18T15:32:46.123Z,39.32
2023-03-18T15:35:20.611Z,39.24
2023-03-18T15:38:03.412Z,39.21
2023-03-18T15:40:35.506Z,39.22
2023-03-18T15:43:18.120Z,39.38
2023-03-18T15:45:48.781Z,39.34
2023-03-18T15:48:26.990Z,39.24
2023-03-18T15:50:57.325Z,39.40
2023-03-18T15:53:27.272Z,39.21
2023-03-18T15:55:56.847Z,39.07
2023-03-18T15:58:28.606Z,39.12
2023-03-18T16:00:58.324Z,39.18
2023-03-18T16:03:31.406Z,39.25
2023-03-18T16:05:59.830Z,39.25
2023-03-18T16:08:27.925Z,39.29
2023-03-18T16:10:59.282Z,39.32
2023-03-18T16:13:30.700Z,39.31
2023-03-18T16:15:58.833Z,39.29
2023-03-18T16:18:28.418Z,39.29
2023-03-18T16:20:57.359Z,39.39
2023-03-18T16:23:25.560Z,39.29
2023-03-18T16:25:56.298Z,39.24
2023-03-18T16:28:26.234Z,39.22
2023-03-18T16:30:56.193Z,39.38
2023-03-18T16:33:26.245Z,39.31
2023-03-18T16:35:59.253Z,39.32
2023-03-18T16:38:28.523Z,39.24
2023-03-18T16:40:57.532Z,39.27
2023-03-18T16:43:28.271Z,39.17
2023-03-18T16:46:00.259Z,39.26
2023-03-18T16:48:29.108Z,39.34
2023-03-18T16:51:01.925Z,39.25
2023-03-18T16:53:31.843Z,39.15
2023-03-18T16:56:03.084Z,39.30
2023-03-18T16:58:35.357Z,39.34
2023-03-18T17:01:06.285Z,39.27
2023-03-18T17:03:34.898Z,39.40
2023-03-18T17:06:06.674Z,39.24
2023-03-18T17:08:34.719Z,39.41
2023-03-18T17:11:05.195Z,39.27
2023-03-18T17:13:37.693Z,39.38
2023-03-18T17:16:06.273Z,39.31
2023-03-18T17:18:34.321Z,39.45
2023-03-18T17:21:03.709Z,39.52
2023-03-18T17:23:34.381Z,39.33
2023-03-18T17:26:03.046Z,39.44
2023-03-18T17:28:35.990Z,39.47
2023-03-18T17:31:04.495Z,39.38
2023-03-18T17:33:35.569Z,39.33
2023-03-18T17:36:04.475Z,39.29
2023-03-18T17:38:35.323Z,39.35
2023-03-18T17:41:12.502Z,39.50
2023-03-18T17:43:40.597Z,39.42
2023-03-18T17:46:08.839Z,39.30
2023-03-18T17:48:38.218Z,39.33
2023-03-18T17:51:09.285Z,39.41
2023-03-18T17:53:41.489Z,39.45
2023-03-18T17:56:14.010Z,39.37
2023-03-18T17:58:45.928Z,39.47
2023-03-18T18:01:17.173Z,39.31
2023-03-18T18:03:45.461Z,39.44
2023-03-18T18:06:18.928Z,39.46
2023-03-18T18:08:48.776Z,39.43
2023-03-18T18:11:21.094Z,39.54
2023-03-18T18:13:50.031Z,39.40
2023-03-18T18:16:18.911Z,39.54
2023-03-18T18:18:49.668Z,39.34
2023-03-18T18:21:21.450Z,39.35
2023-03-18T18:23:51.443Z,39.62
2023-03-18T18:26:22.201Z,39.60
2023-03-18T18:28:51.856Z,39.40
2023-03-18T18:31:21.910Z,39.47
2023-03-18T18:33:51.117Z,39.54
2023-03-18T18:36:19.632Z,39.47
2023-03-18T18:38:47.765Z,39.44
2023-03-18T18:41:17.323Z,39.52
2023-03-18T18:43:45.523Z,39.48
2023-03-18T18:46:15.332Z,39.63
2023-03-18T18:48:45.630Z,39.58
2023-03-18T18:51:18.640Z,39.48
2023-03-18T18:53:47.703Z,39.53
2023-03-18T18:56:20.591Z,39.53
2023-03-18T18:58:49.194Z,39.42
2023-03-18T19:01:18.469Z,39.41
2023-03-18T19:03:46.974Z,39.53
2023-03-18T19:06:26.596Z,39.65
2023-03-18T19:08:55.978Z,39.65
2023-03-18T19:11:26.198Z,39.53
2023-03-18T19:13:55.356Z,39.62
2023-03-18T19:16:30.410Z,39.44
2023-03-18T19:18:59.942Z,39.73
2023-03-18T19:21:28.757Z,39.41
2023-03-18T19:23:58.383Z,39.55
2023-03-18T19:26:27.948Z,39.59
2023-03-18T19:28:59.698Z,39.65
2023-03-18T19:31:30.834Z,39.71
2023-03-18T19:34:00.998Z,39.54
2023-03-18T19:36:31.610Z,39.47
2023-03-18T19:39:01.345Z,39.52
2023-03-18T19:41:32.037Z,39.60
2023-03-18T19:44:04.249Z,39.67
2023-03-18T19:46:38.797Z,39.56
2023-03-18T19:49:13.791Z,39.64
2023-03-18T19:51:42.769Z,39.57
2023-03-18T19:54:29.093Z,39.81
2023-03-18T19:57:01.468Z,39.77
2023-03-18T19:59:38.121Z,39.61
2023-03-18T20:02:21.916Z,39.95
2023-03-18T20:04:50.652Z,39.71
2023-03-18T20:07:20.459Z,39.70
2023-03-18T20:09:48.829Z,39.72
2023-03-18T20:12:24.754Z,39.83
2023-03-18T20:14:53.213Z,39.70
2023-03-18T20:17:46.148Z,40.17
2023-03-18T20:20:16.900Z,39.66
2023-03-18T20:22:48.233Z,39.66
2023-03-18T20:25:23.053Z,39.77
2023-03-18T20:27:56.265Z,39.60
2023-03-18T20:30:27.968Z,39.69
2023-03-18T20:32:56.598Z,39.72
2023-03-18T20:35:28.330Z,39.58
2023-03-18T20:37:57.793Z,39.67
2023-03-18T20:40:28.377Z,39.68
2023-03-18T20:42:58.150Z,39.63
2023-03-18T20:45:27.349Z,39.44
2023-03-18T20:47:56.793Z,39.67
2023-03-18T20:50:29.878Z,39.81
2023-03-18T20:52:58.777Z,39.65
2023-03-18T20:55:30.747Z,39.71
2023-03-18T20:58:01.557Z,39.83
2023-03-18T21:00:33.019Z,39.72
2023-03-18T21:03:03.568Z,39.79
2023-03-18T21:05:31.922Z,39.71
2023-03-18T21:08:00.177Z,39.72
2023-03-18T21:10:28.906Z,39.68
2023-03-18T21:12:57.057Z,39.70
2023-03-18T21:15:28.346Z,39.65
2023-03-18T21:17:56.521Z,39.64
2023-03-18T21:20:28.857Z,39.84
2023-03-18T21:22:57.430Z,39.77
2023-03-18T21:25:27.558Z,39.66
2023-03-18T21:27:55.965Z,39.76
2023-03-18T21:30:24.922Z,39.77
2023-03-18T21:32:54.576Z,39.87
2023-03-18T21:35:25.135Z,39.80
2023-03-18T21:37:54.140Z,39.66
2023-03-18T21:40:24.560Z,39.72
2023-03-18T21:42:53.341Z,39.66
2023-03-18T21:45:24.315Z,39.83
2023-03-18T21:47:53.370Z,39.76
2023-03-18T21:50:25.285Z,39.76
2023-03-18T21:52:54.718Z,39.72
2023-03-18T21:55:23.438Z,39.81
2023-03-18T21:57:51.558Z,39.83
2023-03-18T22:00:21.727Z,39.67
2023-03-18T22:02:50.566Z,39.86
2023-03-18T22:05:21.938Z,39.90
2023-03-18T22:07:52.316Z,39.76
2023-03-18T22:10:23.119Z,39.91
2023-03-18T22:12:51.639Z,39.76
2023-03-18T22:15:37.726Z,40.25
2023-03-18T22:18:07.358Z,39.82
2023-03-18T22:20:36.623Z,39.89
2023-03-18T22:23:17.558Z,40.01
2023-03-18T22:25:46.933Z,39.85
2023-03-18T22:28:15.372Z,39.93
2023-03-18T22:30:46.614Z,39.77
2023-03-18T22:33:20.750Z,39.82
2023-03-18T22:35:49.072Z,39.79
2023-03-18T22:38:20.289Z,39.83
2023-03-18T22:40:50.652Z,39.94
2023-03-18T22:43:30.483Z,40.14
2023-03-18T22:45:59.396Z,39.75
2023-03-18T22:48:27.571Z,39.99
2023-03-18T22:50:58.493Z,39.98
2023-03-18T22:53:30.600Z,39.77
2023-03-18T22:56:02.533Z,39.93
2023-03-18T22:58:30.749Z,40.03
2023-03-18T23:00:58.955Z,39.84
2023-03-18T23:03:30.162Z,39.85
2023-03-18T23:05:59.920Z,39.92
2023-03-18T23:08:29.936Z,39.93
2023-03-18T23:11:01.666Z,39.96
2023-03-18T23:13:31.884Z,39.81
2023-03-18T23:16:01.211Z,39.86
2023-03-18T23:18:29.447Z,39.88
2023-03-18T23:20:57.558Z,39.86
2023-03-18T23:23:26.129Z,39.98
2023-03-18T23:25:55.659Z,39.89
2023-03-18T23:28:23.946Z,39.94
2023-03-18T23:30:53.980Z,39.94
2023-03-18T23:33:22.178Z,39.96
2023-03-18T23:35:50.330Z,40.00
2023-03-18T23:38:18.590Z,39.95
2023-03-18T23:40:46.744Z,39.95
2023-03-18T23:43:16.439Z,39.86
2023-03-18T23:45:45.098Z,39.92
2023-03-18T23:48:13.295Z,39.85
2023-03-18T23:50:41.541Z,39.93
2023-03-18T23:53:09.714Z,39.97
2023-03-18T23:55:37.897Z,39.94
2023-03-18T23:58:06.405Z,40.01
